createdAt,value
2019-01-23T00:03:52.074Z,-1.27
2019-01-23T00:07:56.774Z,-1.22
2019-01-23T00:12:01.467Z,-1.18
2019-01-23T00:16:06.170Z,-1.14
2019-01-23T00:20:10.868Z,-1.09
2019-01-23T00:24:15.569Z,-1.19
2019-01-23T00:28:21.237Z,-1.23
2019-01-23T00:32:25.922Z,-1.26
2019-01-23T00:36:30.616Z,-1.27
2019-01-23T00:40:35.312Z,-1.33
2019-01-23T00:44:40.014Z,-1.38
2019-01-23T00:48:44.718Z,-1.42
2019-01-23T00:52:49.403Z,-1.29
2019-01-23T00:56:55.169Z,-1.25
2019-01-23T01:00:59.866Z,-1.24
2019-01-23T01:05:05.538Z,-1.33
2019-01-23T01:09:10.245Z,-1.36
2019-01-23T01:13:14.923Z,-1.29
2019-01-23T01:17:19.625Z,-1.24
2019-01-23T01:21:24.321Z,-1.16
2019-01-23T01:25:29.015Z,-1.15
2019-01-23T01:29:33.714Z,-1.14
2019-01-23T01:33:38.402Z,-1.12
2019-01-23T01:37:43.100Z,-1.11
2019-01-23T01:41:47.796Z,-1.13
2019-01-23T01:45:52.494Z,-1.13
2019-01-23T01:49:57.197Z,-1.09
2019-01-23T01:54:01.888Z,-1.10
2019-01-23T01:58:10.243Z,-1.14
2019-01-23T02:02:12.980Z,-1.10
2019-01-23T02:06:17.682Z,-0.97
2019-01-23T02:10:22.380Z,-0.92
2019-01-23T02:14:27.070Z,-0.95
2019-01-23T02:18:31.769Z,-1.00
2019-01-23T02:22:36.475Z,-1.08
2019-01-23T02:26:41.165Z,-1.13
2019-01-23T02:30:45.848Z,-1.07
2019-01-23T02:34:50.552Z,-1.06
2019-01-23T02:38:55.251Z,-1.12
2019-01-23T02:42:59.945Z,-1.11
2019-01-23T02:47:04.663Z,-1.16
2019-01-23T02:51:09.345Z,-1.14
2019-01-23T02:55:14.043Z,-1.15
2019-01-23T02:59:18.745Z,-1.11
2019-01-23T03:03:23.438Z,-1.03
2019-01-23T03:07:28.121Z,-1.01
2019-01-23T03:11:32.819Z,-1.03
2019-01-23T03:15:37.514Z,-1.01
2019-01-23T03:19:42.283Z,-1.03
2019-01-23T03:23:47.053Z,-1.04
2019-01-23T03:27:51.745Z,-1.06
2019-01-23T03:31:56.439Z,-1.08
2019-01-23T03:36:01.142Z,-1.10
2019-01-23T03:40:17.390Z,-1.12
2019-01-23T03:44:22.092Z,-1.10
2019-01-23T03:48:26.792Z,-1.14
2019-01-23T03:52:31.478Z,-1.19
2019-01-23T03:56:36.174Z,-1.21
2019-01-23T04:00:40.873Z,-1.22
2019-01-23T04:04:45.577Z,-1.19
2019-01-23T04:08:51.343Z,-1.11
2019-01-23T04:12:56.039Z,-1.01
2019-01-23T04:17:00.743Z,-0.97
2019-01-23T04:21:05.442Z,-0.92
2019-01-23T04:25:10.510Z,-0.96
2019-01-23T04:29:15.210Z,-0.96
2019-01-23T04:33:19.904Z,-0.96
2019-01-23T04:37:24.599Z,-0.94
2019-01-23T04:41:29.297Z,-1.03
2019-01-23T04:45:33.994Z,-1.07
2019-01-23T04:49:38.681Z,-1.15
2019-01-23T04:53:45.049Z,-1.21
2019-01-23T04:57:49.758Z,-1.18
2019-01-23T05:01:54.456Z,-1.21
2019-01-23T05:05:59.148Z,-1.26
2019-01-23T05:10:05.376Z,-1.27
2019-01-23T05:14:10.074Z,-1.29
2019-01-23T05:18:14.772Z,-1.23
2019-01-23T05:22:19.481Z,-1.22
2019-01-23T05:26:24.172Z,-1.24
2019-01-23T05:30:28.856Z,-1.30
2019-01-23T05:34:33.564Z,-1.30
2019-01-23T05:38:38.269Z,-1.32
2019-01-23T05:42:42.969Z,-1.34
2019-01-23T05:46:47.743Z,-1.40
2019-01-23T05:50:52.427Z,-1.32
2019-01-23T05:54:57.126Z,-1.26
2019-01-23T05:59:01.835Z,-1.28
2019-01-23T06:03:06.525Z,-1.33
2019-01-23T06:07:11.221Z,-1.33
2019-01-23T06:11:15.911Z,-1.34
2019-01-23T06:15:20.610Z,-1.25
2019-01-23T06:19:26.381Z,-1.18
2019-01-23T06:23:31.080Z,-1.20
2019-01-23T06:27:35.847Z,-1.26
2019-01-23T06:31:40.537Z,-1.18
2019-01-23T06:35:45.240Z,-1.24
2019-01-23T06:39:49.952Z,-1.29
2019-01-23T06:43:54.648Z,-1.37
2019-01-23T06:47:59.346Z,-1.36
2019-01-23T06:52:04.038Z,-1.31
2019-01-23T06:56:08.739Z,-1.35
2019-01-23T07:00:18.790Z,-1.38
2019-01-23T07:04:23.479Z,-1.36
2019-01-23T07:08:28.176Z,-1.23
2019-01-23T07:12:32.868Z,-1.26
2019-01-23T07:16:38.636Z,-1.28
2019-01-23T07:20:43.337Z,-1.31
2019-01-23T07:24:48.045Z,-1.42
2019-01-23T07:28:52.749Z,-1.48
2019-01-23T07:32:57.441Z,-1.41
2019-01-23T07:37:02.148Z,-1.39
2019-01-23T07:41:07.820Z,-1.30
2019-01-23T07:45:15.817Z,-1.24
2019-01-23T07:49:20.511Z,-1.20
2019-01-23T07:53:25.217Z,-1.31
2019-01-23T07:57:29.915Z,-1.36
2019-01-23T08:01:34.611Z,-1.34
2019-01-23T08:05:39.309Z,-1.24
2019-01-23T08:09:43.997Z,-1.09
2019-01-23T08:13:48.738Z,-1.10
2019-01-23T08:17:53.407Z,-1.06
2019-01-23T08:21:58.109Z,-1.01
2019-01-23T08:26:02.817Z,-0.94
2019-01-23T08:30:10.347Z,-0.93
2019-01-23T08:34:15.055Z,-0.95
2019-01-23T08:38:19.752Z,-0.95
2019-01-23T08:42:24.457Z,-0.93
2019-01-23T08:46:29.204Z,-0.92
2019-01-23T08:50:36.700Z,-0.88
2019-01-23T08:54:41.405Z,-0.83
2019-01-23T08:58:46.104Z,-0.76
2019-01-23T09:02:50.807Z,-0.81
2019-01-23T09:06:55.498Z,-0.92
2019-01-23T09:11:00.195Z,-0.95
2019-01-23T09:15:08.233Z,-0.94
2019-01-23T09:19:12.935Z,-0.83
2019-01-23T09:23:17.641Z,-0.73
2019-01-23T09:27:22.327Z,-0.68
2019-01-23T09:31:33.069Z,-0.61
2019-01-23T09:36:06.486Z,-0.55
2019-01-23T09:40:14.440Z,-0.46
2019-01-23T09:44:37.534Z,-0.47
2019-01-23T09:48:54.365Z,-0.50
2019-01-23T09:53:02.330Z,-0.57
2019-01-23T09:57:07.013Z,-0.58
2019-01-23T10:01:11.710Z,-0.65
2019-01-23T10:05:16.474Z,-0.66
2019-01-23T10:09:21.174Z,-0.59
2019-01-23T10:13:25.869Z,-0.72
2019-01-23T10:17:30.562Z,-0.83
2019-01-23T10:21:35.259Z,-0.77
2019-01-23T10:25:39.959Z,-0.68
2019-01-23T10:29:44.652Z,-0.62
2019-01-23T10:33:49.355Z,-0.60
2019-01-23T10:37:54.045Z,-0.49
2019-01-23T10:41:58.746Z,-0.38
2019-01-23T10:46:03.440Z,-0.42
2019-01-23T10:50:11.176Z,-0.48
2019-01-23T10:54:15.873Z,-0.47
2019-01-23T10:58:20.570Z,-0.37
2019-01-23T11:02:25.273Z,-0.24
2019-01-23T11:06:29.974Z,-0.25
2019-01-23T11:10:34.670Z,-0.22
2019-01-23T11:14:39.373Z,-0.20
2019-01-23T11:18:44.063Z,-0.46
2019-01-23T11:22:48.762Z,-0.77
2019-01-23T11:26:53.465Z,-0.70
2019-01-23T11:30:58.165Z,-0.57
2019-01-23T11:35:02.869Z,-0.56
2019-01-23T11:39:08.292Z,-0.35
2019-01-23T11:43:12.991Z,-0.28
2019-01-23T11:47:17.695Z,-0.49
2019-01-23T11:51:22.392Z,-0.85
2019-01-23T11:55:27.091Z,-1.22
2019-01-23T11:59:31.776Z,-1.41
2019-01-23T12:03:36.474Z,-1.44
2019-01-23T12:07:41.176Z,-1.25
2019-01-23T12:11:45.883Z,-0.96
2019-01-23T12:15:50.580Z,-1.20
2019-01-23T12:19:55.260Z,-1.27
2019-01-23T12:23:59.965Z,-1.02
2019-01-23T12:28:04.665Z,-0.71
2019-01-23T12:32:09.363Z,-0.55
2019-01-23T12:36:14.067Z,-0.42
2019-01-23T12:40:18.750Z,-0.41
2019-01-23T12:44:23.453Z,-0.35
2019-01-23T12:48:28.151Z,-0.29
2019-01-23T12:52:32.846Z,-0.25
2019-01-23T12:56:37.536Z,-0.46
2019-01-23T13:00:42.238Z,-0.96
2019-01-23T13:04:46.945Z,-1.18
2019-01-23T13:08:51.643Z,-1.32
2019-01-23T13:12:56.411Z,-1.23
2019-01-23T13:17:01.106Z,-1.10
2019-01-23T13:21:05.813Z,-1.08
2019-01-23T13:25:24.302Z,-0.94
2019-01-23T13:29:29.958Z,-0.88
2019-01-23T13:33:34.667Z,-0.68
2019-01-23T13:37:39.368Z,-0.59
2019-01-23T13:41:44.057Z,-0.59
2019-01-23T13:45:48.751Z,-0.68
2019-01-23T13:49:53.464Z,-0.76
2019-01-23T13:53:58.162Z,-0.82
2019-01-23T13:58:02.855Z,-0.75
2019-01-23T14:02:07.548Z,-0.96
2019-01-23T14:06:12.243Z,-1.15
2019-01-23T14:10:17.775Z,-1.20
2019-01-23T14:14:22.475Z,-1.14
2019-01-23T14:18:27.175Z,-1.21
2019-01-23T14:22:31.868Z,-1.26
2019-01-23T14:26:36.568Z,-1.10
2019-01-23T14:30:42.910Z,-1.11
2019-01-23T14:34:47.606Z,-1.12
2019-01-23T14:38:52.301Z,-1.08
2019-01-23T14:42:56.985Z,-1.25
2019-01-23T14:47:01.687Z,-1.38
2019-01-23T14:51:06.385Z,-1.49
2019-01-23T14:55:11.351Z,-1.58
2019-01-23T14:59:16.047Z,-1.41
2019-01-23T15:03:20.747Z,-1.39
2019-01-23T15:07:25.458Z,-1.42
2019-01-23T15:11:30.156Z,-1.24
2019-01-23T15:15:34.859Z,-1.09
2019-01-23T15:19:39.558Z,-0.95
2019-01-23T15:23:45.120Z,-1.09
2019-01-23T15:27:49.823Z,-1.33
2019-01-23T15:31:54.523Z,-1.35
2019-01-23T15:35:59.226Z,-1.32
2019-01-23T15:40:06.461Z,-1.25
2019-01-23T15:44:11.156Z,-1.37
2019-01-23T15:48:16.825Z,-1.30
2019-01-23T15:52:21.524Z,-1.09
2019-01-23T15:56:26.222Z,-0.94
2019-01-23T16:00:32.251Z,-1.03
2019-01-23T16:04:36.954Z,-1.10
2019-01-23T16:08:41.657Z,-1.18
2019-01-23T16:12:46.357Z,-1.27
2019-01-23T16:16:51.069Z,-1.35
2019-01-23T16:20:55.752Z,-1.38
2019-01-23T16:25:01.755Z,-1.41
2019-01-23T16:29:06.820Z,-1.47
2019-01-23T16:33:11.525Z,-1.38
2019-01-23T16:37:16.223Z,-1.19
2019-01-23T16:41:20.927Z,-1.19
2019-01-23T16:45:25.623Z,-1.25
2019-01-23T16:49:30.316Z,-1.31
2019-01-23T16:53:35.024Z,-1.28
2019-01-23T16:57:39.726Z,-1.30
2019-01-23T17:01:44.459Z,-1.33
2019-01-23T17:05:49.157Z,-1.35
2019-01-23T17:09:53.854Z,-1.29
2019-01-23T17:13:58.554Z,-1.25
2019-01-23T17:18:03.252Z,-1.31
2019-01-23T17:22:07.997Z,-1.35
2019-01-23T17:26:12.634Z,-1.29
2019-01-23T17:30:18.578Z,-1.20
2019-01-23T17:34:23.279Z,-1.03
2019-01-23T17:38:27.980Z,-1.04
2019-01-23T17:42:32.682Z,-1.07
2019-01-23T17:46:37.379Z,-0.91
2019-01-23T17:50:42.078Z,-0.79
2019-01-23T17:54:46.776Z,-0.70
2019-01-23T17:58:51.469Z,-0.67
2019-01-23T18:02:56.172Z,-0.63
2019-01-23T18:07:00.866Z,-0.58
2019-01-23T18:11:06.540Z,-0.57
2019-01-23T18:15:14.506Z,-0.24
2019-01-23T18:19:19.207Z,-0.43
2019-01-23T18:23:23.935Z,-0.62
2019-01-23T18:27:28.634Z,-0.52
2019-01-23T18:31:33.964Z,-0.48
2019-01-23T18:36:00.158Z,-0.44
2019-01-23T18:40:20.164Z,-0.41
2019-01-23T18:44:43.317Z,-0.35
2019-01-23T18:49:24.705Z,-0.40
2019-01-23T18:53:29.389Z,-0.42
2019-01-23T18:57:34.098Z,-0.36
2019-01-23T19:01:38.869Z,-0.26
2019-01-23T19:05:43.573Z,-0.05
2019-01-23T19:09:48.280Z,-0.12
2019-01-23T19:13:52.969Z,-0.19
2019-01-23T19:17:57.710Z,-0.50
2019-01-23T19:22:02.362Z,-0.63
2019-01-23T19:26:07.067Z,-0.61
2019-01-23T19:30:22.472Z,-0.56
2019-01-23T19:34:27.393Z,-0.70
2019-01-23T19:38:32.046Z,-0.82
2019-01-23T19:42:36.754Z,-0.92
2019-01-23T19:46:41.452Z,-0.98
2019-01-23T19:50:46.153Z,-1.24
2019-01-23T19:54:50.843Z,-1.41
2019-01-23T19:58:55.537Z,-1.56
2019-01-23T20:03:00.235Z,-1.66
2019-01-23T20:07:06.007Z,-1.74
2019-01-23T20:11:11.779Z,-1.75
2019-01-23T20:15:18.207Z,-1.76
2019-01-23T20:19:22.909Z,-1.82
2019-01-23T20:23:27.606Z,-1.79
2019-01-23T20:27:32.305Z,-1.85
2019-01-23T20:31:37.008Z,-1.95
2019-01-23T20:35:41.775Z,-2.03
2019-01-23T20:39:46.474Z,-2.02
2019-01-23T20:43:51.177Z,-1.96
2019-01-23T20:47:57.510Z,-1.96
2019-01-23T20:52:02.212Z,-1.92
2019-01-23T20:56:06.906Z,-1.83
2019-01-23T21:00:17.354Z,-1.84
2019-01-23T21:04:22.052Z,-1.86
2019-01-23T21:08:26.762Z,-1.98
2019-01-23T21:12:31.457Z,-2.07
2019-01-23T21:16:36.146Z,-2.13
2019-01-23T21:20:40.838Z,-2.12
2019-01-23T21:24:45.538Z,-2.08
2019-01-23T21:28:50.255Z,-2.13
2019-01-23T21:32:54.956Z,-2.06
2019-01-23T21:36:59.661Z,-2.12
2019-01-23T21:41:04.365Z,-2.13
2019-01-23T21:45:12.105Z,-2.09
2019-01-23T21:49:16.808Z,-2.02
2019-01-23T21:53:21.511Z,-1.98
2019-01-23T21:57:26.213Z,-2.13
2019-01-23T22:01:30.915Z,-2.12
2019-01-23T22:05:35.615Z,-2.23
2019-01-23T22:09:40.308Z,-2.26
2019-01-23T22:13:45.005Z,-2.30
2019-01-23T22:17:49.705Z,-2.31
2019-01-23T22:21:54.390Z,-2.36
2019-01-23T22:25:59.088Z,-2.34
2019-01-23T22:30:06.082Z,-2.34
2019-01-23T22:34:10.784Z,-2.31
2019-01-23T22:38:15.472Z,-2.30
2019-01-23T22:42:20.157Z,-2.32
2019-01-23T22:46:24.856Z,-2.27
2019-01-23T22:50:29.554Z,-2.26
2019-01-23T22:54:34.252Z,-2.27
2019-01-23T22:58:38.945Z,-2.41
2019-01-23T23:02:43.647Z,-2.54
2019-01-23T23:06:48.347Z,-2.57
2019-01-23T23:10:53.046Z,-2.49
2019-01-23T23:14:57.742Z,-2.63
2019-01-23T23:19:02.435Z,-2.62
2019-01-23T23:23:07.133Z,-2.70
2019-01-23T23:27:11.839Z,-2.79
2019-01-23T23:31:16.605Z,-2.84
2019-01-23T23:35:21.307Z,-2.85
2019-01-23T23:39:25.990Z,-2.83
2019-01-23T23:43:30.693Z,-2.88
2019-01-23T23:47:35.390Z,-2.85
2019-01-23T23:51:40.081Z,-2.83
2019-01-23T23:55:44.783Z,-2.83
2019-01-23T23:59:49.474Z,-2.82
